Voorheesville, NY

8:26 PM EDT on April 21, 2015 (GMT -0400)
Voorheesville High School | | Change Station
CLOSE
Current Station
Personal Weather Station
Location: Voorheesville, NY
Elevation: 400 ft
Nearby Weather Stations

Elev 400 ft 42.64 °N, 73.96 °W | Updated 5 days ago

Partly Cloudy
Partly Cloudy
45 °F
Feels Like 43 °F
N
4
Wind Variable Wind from SW
Gusts mph

Today
High -- | Low -- °F
--% Chance of Precip.
Yesterday
High -- | Low -- °F
Precip. -- in
6:05 AM 7:44 PM
Waxing Crescent, 13% visible
Pressure 29.68 in
Visibility 10.0 miles
Clouds Few 7500 ft
Scattered Clouds 10000 ft
Windchill 43 °F
Dew Point 28 °F
Humidity 52%
Rainfall in
Snow Depth Not available.
UV 0 out of 12
Pollen 3.50 out of 12
Air Quality Not available.
Flu Activity Widespread
METAR KALB 212351Z 00000KT 10SM FEW075 SCT100 12/00 A2968 RMK AO2 SLP051 T01220000 10161 20122 53008

More Conditions Fewer Conditions

Pressure 29.68 in
Visibility 10.0 miles
Clouds Few 7500 ft
Scattered Clouds 10000 ft
Windchill 43 °F
Dew Point 28 °F
Humidity 52%
Rainfall in
Snow Depth Not available.
UV 0 out of 12
Pollen 3.50 out of 12
Air Quality Not available.
Flu Activity Widespread
METAR KALB 212351Z 00000KT 10SM FEW075 SCT100 12/00 A2968 RMK AO2 SLP051 T01220000 10161 20122 53008

More Conditions Fewer Conditions

10-Day Weather Forecast

Almanac

Astronomy

Apr. 21, 2015 Rise Set
Actual Time
Civil Twilight
Nautical Twilight
Astronomical Twilight
Moon
Length of Visible Light
Length of Day
Tomorrow will be .
, % of the Moon is Illuminated

Today's Extremes

State Highs State Lows

Community

WunderPhotos

Upload Photos

1,815,588 photos uploaded!

WunderBlogs® & News

Nearby

Air Quality

  Air Quality AQ Index Pollutant
Not available.

Snow Depth

Station Depth Elevation

Earthquake Activity

City Distance Mag. Time & Date
Minimum magnitude displayed is 2.5.

Coastal Water Temperatures

Place Temperature

Stations

Nearby Weather Stations

Station Location Temp. Windchill Dew Point Humidity Wind Precip. Elev Updated Type